Time;durP1;ratioP1;P1;durP2;ratioP2;P2;SDS_P1;SDS_P2;PMS_P1;PMS_P2;Temp;Humidity;BMP_temperature;BMP_pressure;BME280_temperature;BME280_humidity;BME280_pressure;Samples;Min_cycle;Max_cycle;Signal;HPM_P1;HPM_P2
2021/07/08 00:02:17;;;;;;;21.50;20.30;;;;;;;;;;5037007;28;20674;-66
2021/07/08 00:04:44;;;;;;;21.27;20.10;;;;;;;;;;5073973;28;20439;-67
2021/07/08 00:07:11;;;;;;;21.30;20.20;;;;;;;;;;5072749;28;20457;-66
2021/07/08 00:09:40;;;;;;;21.20;20.10;;;;;;;;;;5054678;28;20462;-67
2021/07/08 00:12:07;;;;;;;20.97;19.87;;;;;;;;;;5040138;28;20476;-67
2021/07/08 00:14:35;;;;;;;22.00;20.60;;;;;;;;;;5057117;28;20478;-67
2021/07/08 00:17:02;;;;;;;21.60;20.50;;;;;;;;;;5056249;28;20470;-67
2021/07/08 00:19:29;;;;;;;21.60;20.50;;;;;;;;;;5053069;28;20455;-68
2021/07/08 00:21:57;;;;;;;21.07;20.07;;;;;;;;;;5064233;28;21014;-66
2021/07/08 00:24:24;;;;;;;20.60;19.50;;;;;;;;;;5072772;28;20453;-65
2021/07/08 00:26:52;;;;;;;21.40;20.23;;;;;;;;;;5065394;28;20841;-67
2021/07/08 00:29:19;;;;;;;22.10;20.90;;;;;;;;;;5053008;28;20451;-67
2021/07/08 00:31:46;;;;;;;21.23;20.03;;;;;;;;;;5042233;28;20477;-67
2021/07/08 00:34:13;;;;;;;22.23;20.70;;;;;;;;;;5051838;28;20486;-67
2021/07/08 00:36:40;;;;;;;21.23;20.13;;;;;;;;;;5035160;28;20463;-68
2021/07/08 00:39:08;;;;;;;20.93;19.83;;;;;;;;;;5035930;28;20463;-68
2021/07/08 00:41:35;;;;;;;21.33;20.03;;;;;;;;;;5053250;28;20468;-67
2021/07/08 00:44:03;;;;;;;21.03;20.03;;;;;;;;;;5053105;28;20452;-67
2021/07/08 00:46:31;;;;;;;21.60;20.50;;;;;;;;;;5053477;28;20443;-66
2021/07/08 00:48:58;;;;;;;21.03;19.83;;;;;;;;;;5053009;28;20939;-68
2021/07/08 00:51:25;;;;;;;21.27;20.07;;;;;;;;;;5051348;28;20456;-68
2021/07/08 00:53:52;;;;;;;20.77;19.67;;;;;;;;;;5050231;28;20476;-67
2021/07/08 00:56:19;;;;;;;20.77;19.37;;;;;;;;;;5033434;28;20449;-67
2021/07/08 00:58:48;;;;;;;21.47;20.37;;;;;;;;;;5033547;28;20466;-67
2021/07/08 01:01:16;;;;;;;21.50;20.10;;;;;;;;;;5036936;28;20455;-67
2021/07/08 01:03:43;;;;;;;20.77;19.67;;;;;;;;;;5053065;28;20444;-67
2021/07/08 01:06:11;;;;;;;21.17;19.87;;;;;;;;;;5059326;28;20474;-67
2021/07/08 01:08:38;;;;;;;20.47;19.47;;;;;;;;;;5052224;28;20823;-67
2021/07/08 01:11:05;;;;;;;20.23;19.33;;;;;;;;;;5051911;28;20458;-66
2021/07/08 01:13:32;;;;;;;21.10;19.80;;;;;;;;;;5033071;28;20451;-67
2021/07/08 01:15:59;;;;;;;21.13;20.10;;;;;;;;;;5053037;28;20462;-66
2021/07/08 01:18:27;;;;;;;21.30;20.13;;;;;;;;;;5071166;28;20454;-66
2021/07/08 01:20:55;;;;;;;20.70;19.60;;;;;;;;;;5052463;28;20816;-67
2021/07/08 01:23:23;;;;;;;21.50;20.40;;;;;;;;;;5044694;28;20469;-67
2021/07/08 01:25:50;;;;;;;21.13;20.03;;;;;;;;;;5040277;28;20464;-67
2021/07/08 01:28:18;;;;;;;21.10;20.00;;;;;;;;;;5032655;28;20447;-66
2021/07/08 01:30:46;;;;;;;22.50;21.40;;;;;;;;;;5033952;28;20449;-67
2021/07/08 01:33:13;;;;;;;22.00;20.90;;;;;;;;;;5058782;28;20479;-65
2021/07/08 01:35:40;;;;;;;21.77;20.77;;;;;;;;;;5072638;28;20509;-66
2021/07/08 01:38:08;;;;;;;21.90;20.70;;;;;;;;;;5070813;28;20476;-66
2021/07/08 01:40:39;;;;;;;22.27;21.17;;;;;;;;;;5048062;28;20936;-67
2021/07/08 01:43:06;;;;;;;22.20;21.10;;;;;;;;;;5031914;28;20481;-65
2021/07/08 01:45:33;;;;;;;21.70;20.43;;;;;;;;;;5068086;28;20805;-67
2021/07/08 01:48:00;;;;;;;22.10;21.00;;;;;;;;;;5070656;28;20447;-67
2021/07/08 01:50:27;;;;;;;21.87;20.70;;;;;;;;;;5071827;28;20447;-67
2021/07/08 01:52:54;;;;;;;22.10;20.50;;;;;;;;;;5052608;28;20468;-68
2021/07/08 01:55:21;;;;;;;22.50;21.30;;;;;;;;;;5043963;28;20484;-67
2021/07/08 01:57:53;;;;;;;22.83;21.30;;;;;;;;;;5050211;28;20824;-67
2021/07/08 02:00:21;;;;;;;23.10;21.80;;;;;;;;;;5032545;28;20452;-67
2021/07/08 02:02:48;;;;;;;22.47;21.17;;;;;;;;;;5032143;28;20517;-67
2021/07/08 02:05:16;;;;;;;22.50;21.10;;;;;;;;;;5032106;28;20447;-66
2021/07/08 02:07:43;;;;;;;22.27;21.07;;;;;;;;;;5050502;28;20509;-67
2021/07/08 02:10:11;;;;;;;21.83;20.57;;;;;;;;;;5047176;28;20453;-66
2021/07/08 02:12:39;;;;;;;21.73;20.53;;;;;;;;;;5031605;28;20472;-66
2021/07/08 02:15:08;;;;;;;21.60;20.50;;;;;;;;;;5050765;28;20859;-67
2021/07/08 02:17:35;;;;;;;22.10;21.07;;;;;;;;;;5051316;28;20448;-67
2021/07/08 02:20:02;;;;;;;21.53;20.43;;;;;;;;;;5051696;28;20452;-65
2021/07/08 02:22:31;;;;;;;22.10;21.00;;;;;;;;;;5051056;28;20477;-67
2021/07/08 02:24:58;;;;;;;23.20;21.90;;;;;;;;;;5051045;28;20452;-65
2021/07/08 02:27:25;;;;;;;22.60;21.50;;;;;;;;;;5050225;28;20452;-68
2021/07/08 02:29:53;;;;;;;22.50;21.20;;;;;;;;;;5035734;28;20452;-67
2021/07/08 02:32:21;;;;;;;22.00;20.90;;;;;;;;;;5059282;28;20473;-68
2021/07/08 02:34:48;;;;;;;22.30;21.10;;;;;;;;;;5071335;28;20479;-67
2021/07/08 02:37:17;;;;;;;23.30;22.00;;;;;;;;;;5032490;28;20464;-67
2021/07/08 02:39:44;;;;;;;21.87;20.77;;;;;;;;;;5049273;28;20826;-67
2021/07/08 02:42:11;;;;;;;22.03;20.83;;;;;;;;;;5071341;28;20482;-66
2021/07/08 02:44:38;;;;;;;22.20;21.10;;;;;;;;;;5044564;28;20981;-68
2021/07/08 02:47:05;;;;;;;22.00;20.90;;;;;;;;;;5059315;28;20453;-66
2021/07/08 02:49:34;;;;;;;23.07;21.67;;;;;;;;;;5071148;28;20538;-67
2021/07/08 02:52:01;;;;;;;22.43;21.10;;;;;;;;;;5032873;28;20472;-67
2021/07/08 02:54:28;;;;;;;22.50;21.40;;;;;;;;;;5037139;28;20994;-68
2021/07/08 02:56:55;;;;;;;21.77;20.67;;;;;;;;;;5038365;28;20448;-68
2021/07/08 02:59:22;;;;;;;22.60;21.47;;;;;;;;;;5031938;28;20459;-68
2021/07/08 03:01:49;;;;;;;20.80;19.70;;;;;;;;;;5049390;28;20494;-68
2021/07/08 03:04:16;;;;;;;21.50;20.50;;;;;;;;;;5043896;28;20451;-67
2021/07/08 03:06:45;;;;;;;22.43;21.07;;;;;;;;;;5035292;28;20448;-66
2021/07/08 03:09:12;;;;;;;22.20;21.00;;;;;;;;;;5053677;28;21036;-67
2021/07/08 03:11:39;;;;;;;22.50;21.10;;;;;;;;;;5054936;28;20464;-67
2021/07/08 03:14:06;;;;;;;22.10;20.90;;;;;;;;;;5050874;28;20455;-67
2021/07/08 03:16:33;;;;;;;22.00;20.80;;;;;;;;;;5054006;28;20456;-67
2021/07/08 03:19:00;;;;;;;21.83;20.73;;;;;;;;;;5042508;28;20452;-67
2021/07/08 03:21:27;;;;;;;22.37;21.10;;;;;;;;;;5036927;28;20497;-67
2021/07/08 03:23:56;;;;;;;22.57;21.27;;;;;;;;;;5055133;28;20458;-67
2021/07/08 03:26:23;;;;;;;22.70;21.30;;;;;;;;;;5047241;28;20966;-68
2021/07/08 03:28:50;;;;;;;23.50;22.00;;;;;;;;;;5045717;28;20462;-67
2021/07/08 03:31:18;;;;;;;22.47;21.27;;;;;;;;;;5043646;28;20809;-67
2021/07/08 03:33:46;;;;;;;23.23;21.73;;;;;;;;;;5053892;28;21016;-67
2021/07/08 03:36:13;;;;;;;23.70;22.10;;;;;;;;;;5055839;28;21011;-68
2021/07/08 03:38:40;;;;;;;23.23;21.30;;;;;;;;;;5075200;28;20447;-68
2021/07/08 03:41:08;;;;;;;23.17;21.77;;;;;;;;;;5072828;28;20754;-68
2021/07/08 03:43:35;;;;;;;23.57;22.10;;;;;;;;;;5068921;28;20444;-68
2021/07/08 03:46:03;;;;;;;23.67;22.47;;;;;;;;;;5034678;28;20476;-68
2021/07/08 03:48:30;;;;;;;22.87;21.50;;;;;;;;;;5034975;28;20451;-67
2021/07/08 03:50:57;;;;;;;22.73;21.43;;;;;;;;;;5036977;28;20455;-67
2021/07/08 03:53:24;;;;;;;23.20;21.80;;;;;;;;;;5075908;22;21031;-72
2021/07/08 03:55:51;;;;;;;22.73;21.40;;;;;;;;;;5053310;28;20496;-69
2021/07/08 03:58:20;;;;;;;22.73;21.43;;;;;;;;;;5055447;28;20976;-69
2021/07/08 04:00:47;;;;;;;23.47;22.00;;;;;;;;;;5057688;28;20470;-73
2021/07/08 04:03:15;;;;;;;21.97;20.73;;;;;;;;;;5063823;28;20832;-70
2021/07/08 04:05:43;;;;;;;23.00;21.70;;;;;;;;;;5068113;28;20511;-70
2021/07/08 04:08:10;;;;;;;23.70;22.40;;;;;;;;;;5069795;28;20469;-69
2021/07/08 04:10:39;;;;;;;23.93;22.60;;;;;;;;;;5065392;28;20451;-69
2021/07/08 04:13:07;;;;;;;23.77;22.47;;;;;;;;;;5059372;28;20474;-69
2021/07/08 04:15:36;;;;;;;24.07;22.57;;;;;;;;;;5074934;28;20489;-69
2021/07/08 04:18:03;;;;;;;24.70;23.20;;;;;;;;;;5063123;28;20460;-69
2021/07/08 04:20:30;;;;;;;24.43;22.80;;;;;;;;;;5071703;28;20474;-69
2021/07/08 04:22:58;;;;;;;25.47;23.40;;;;;;;;;;5054418;28;20478;-70
2021/07/08 04:25:25;;;;;;;24.30;22.90;;;;;;;;;;5067276;28;20451;-70
2021/07/08 04:27:52;;;;;;;23.97;22.60;;;;;;;;;;5072842;28;20942;-70
2021/07/08 04:30:20;;;;;;;24.53;23.13;;;;;;;;;;5073432;28;20457;-69
2021/07/08 04:32:49;;;;;;;24.33;23.03;;;;;;;;;;5073648;28;20455;-69
2021/07/08 04:35:18;;;;;;;23.33;22.03;;;;;;;;;;5070640;28;20482;-70
2021/07/08 04:37:45;;;;;;;23.93;22.50;;;;;;;;;;5074837;28;20681;-69
2021/07/08 04:40:13;;;;;;;23.40;22.10;;;;;;;;;;5072932;28;20486;-70
2021/07/08 04:42:40;;;;;;;23.20;22.00;;;;;;;;;;5068318;28;20444;-70
2021/07/08 04:45:08;;;;;;;24.53;23.00;;;;;;;;;;5053948;28;20448;-69
2021/07/08 04:47:37;;;;;;;22.77;21.37;;;;;;;;;;5069156;28;20457;-69
2021/07/08 04:50:06;;;;;;;24.03;22.37;;;;;;;;;;5066002;28;20451;-71
2021/07/08 04:52:34;;;;;;;24.60;23.10;;;;;;;;;;5074040;28;20961;-69
2021/07/08 04:55:01;;;;;;;24.03;22.63;;;;;;;;;;5073561;28;20491;-69
2021/07/08 04:57:28;;;;;;;24.10;22.80;;;;;;;;;;5073829;28;20452;-69
2021/07/08 04:59:55;;;;;;;25.00;23.60;;;;;;;;;;5075020;28;20451;-70
2021/07/08 05:02:22;;;;;;;25.70;24.13;;;;;;;;;;5074267;28;20451;-72
2021/07/08 05:04:49;;;;;;;26.07;24.47;;;;;;;;;;5065705;28;20471;-69
2021/07/08 05:07:18;;;;;;;25.23;23.73;;;;;;;;;;5059015;28;20443;-74
2021/07/08 05:09:45;;;;;;;24.53;23.03;;;;;;;;;;5074797;28;20451;-70
2021/07/08 05:12:12;;;;;;;25.03;23.33;;;;;;;;;;5074475;28;20954;-69
2021/07/08 05:14:39;;;;;;;23.70;22.40;;;;;;;;;;5061142;28;20490;-70
2021/07/08 05:17:06;;;;;;;24.13;22.73;;;;;;;;;;5056181;28;20451;-69
2021/07/08 05:19:33;;;;;;;23.13;21.63;;;;;;;;;;5057848;28;20451;-69
2021/07/08 05:22:01;;;;;;;23.70;22.20;;;;;;;;;;5053928;28;20448;-72
2021/07/08 05:24:29;;;;;;;23.87;22.47;;;;;;;;;;5073930;28;20462;-69
2021/07/08 05:26:57;;;;;;;23.97;22.43;;;;;;;;;;5072317;28;20443;-70
2021/07/08 05:29:24;;;;;;;23.37;21.83;;;;;;;;;;5073327;28;20824;-70
2021/07/08 05:31:51;;;;;;;23.20;21.97;;;;;;;;;;5070963;28;20465;-70
2021/07/08 05:34:18;;;;;;;23.47;22.17;;;;;;;;;;5053865;28;20843;-69
2021/07/08 05:36:45;;;;;;;23.00;21.70;;;;;;;;;;5059595;28;20492;-69
2021/07/08 05:39:13;;;;;;;22.70;21.40;;;;;;;;;;5074063;28;20447;-71
2021/07/08 05:41:41;;;;;;;23.10;21.80;;;;;;;;;;5050852;28;20454;-70
2021/07/08 05:44:08;;;;;;;22.60;21.30;;;;;;;;;;5053572;28;20468;-69
2021/07/08 05:46:35;;;;;;;23.63;22.40;;;;;;;;;;5055329;28;20461;-70
2021/07/08 05:49:03;;;;;;;23.57;22.00;;;;;;;;;;5073182;28;20443;-70
2021/07/08 05:51:30;;;;;;;23.33;22.00;;;;;;;;;;5072898;28;20921;-69
2021/07/08 05:53:59;;;;;;;23.17;21.97;;;;;;;;;;5073378;28;20989;-71
2021/07/08 05:56:26;;;;;;;23.47;22.10;;;;;;;;;;5058429;28;20487;-70
2021/07/08 05:58:55;;;;;;;23.00;21.70;;;;;;;;;;5070346;28;20950;-71
2021/07/08 06:01:22;;;;;;;34.80;32.80;;;;;;;;;;5063529;28;20448;-70
2021/07/08 06:03:49;;;;;;;35.00;32.80;;;;;;;;;;5072964;28;20474;-67
2021/07/08 06:06:17;;;;;;;29.33;27.63;;;;;;;;;;5073875;28;20442;-69
2021/07/08 06:08:44;;;;;;;27.87;26.20;;;;;;;;;;5072313;28;20447;-69
2021/07/08 06:11:11;;;;;;;27.60;25.90;;;;;;;;;;5052491;28;20456;-69
2021/07/08 06:13:38;;;;;;;26.00;24.50;;;;;;;;;;5068384;28;20478;-68
2021/07/08 06:16:07;;;;;;;26.10;24.70;;;;;;;;;;5072551;28;20493;-69
2021/07/08 06:18:35;;;;;;;28.03;26.47;;;;;;;;;;5072642;28;20455;-69
2021/07/08 06:21:03;;;;;;;36.63;34.53;;;;;;;;;;5073661;28;20451;-69
2021/07/08 06:23:30;;;;;;;39.33;37.20;;;;;;;;;;5057670;28;20475;-68
2021/07/08 06:25:58;;;;;;;35.87;33.67;;;;;;;;;;5053965;28;20451;-69
2021/07/08 06:28:25;;;;;;;32.53;30.80;;;;;;;;;;5073037;28;20537;-69
2021/07/08 06:30:52;;;;;;;39.33;37.03;;;;;;;;;;5072551;28;20453;-69
2021/07/08 06:33:21;;;;;;;33.67;31.77;;;;;;;;;;5072617;28;20475;-69
2021/07/08 06:35:48;;;;;;;33.73;31.83;;;;;;;;;;5073714;28;20854;-69
2021/07/08 06:38:15;;;;;;;33.47;31.47;;;;;;;;;;5052033;28;20487;-66
2021/07/08 06:40:43;;;;;;;32.77;30.77;;;;;;;;;;5052915;28;20448;-67
2021/07/08 06:43:10;;;;;;;31.07;29.20;;;;;;;;;;5069056;28;20849;-68
2021/07/08 06:45:37;;;;;;;28.13;26.53;;;;;;;;;;5073454;28;20443;-68
2021/07/08 06:48:05;;;;;;;26.87;25.40;;;;;;;;;;5072441;28;20469;-68
2021/07/08 06:50:34;;;;;;;26.83;25.33;;;;;;;;;;5067376;28;20831;-68
2021/07/08 06:53:02;;;;;;;26.50;24.90;;;;;;;;;;5050825;28;20506;-68
2021/07/08 06:55:29;;;;;;;25.40;24.00;;;;;;;;;;5059728;28;20453;-70
2021/07/08 06:57:56;;;;;;;24.60;23.30;;;;;;;;;;5072530;28;20461;-68
2021/07/08 07:00:24;;;;;;;24.30;22.90;;;;;;;;;;5071309;28;20534;-68
2021/07/08 07:02:51;;;;;;;24.30;22.90;;;;;;;;;;5041080;28;20448;-68
2021/07/08 07:05:18;;;;;;;24.57;23.17;;;;;;;;;;5051897;28;20451;-68
2021/07/08 07:07:47;;;;;;;23.67;22.27;;;;;;;;;;5055506;28;20455;-68
2021/07/08 07:10:15;;;;;;;24.27;22.80;;;;;;;;;;5072227;28;20446;-68
2021/07/08 07:12:42;;;;;;;23.47;22.20;;;;;;;;;;5071638;28;20447;-69
2021/07/08 07:15:09;;;;;;;22.90;21.70;;;;;;;;;;5072238;28;20451;-70
2021/07/08 07:17:37;;;;;;;24.40;23.10;;;;;;;;;;5072164;28;20488;-68
2021/07/08 07:20:05;;;;;;;24.53;23.23;;;;;;;;;;5059315;28;20456;-69
2021/07/08 07:22:32;;;;;;;24.53;23.23;;;;;;;;;;5052408;28;20452;-69
2021/07/08 07:25:00;;;;;;;24.10;22.83;;;;;;;;;;5071540;28;21065;-68
2021/07/08 07:27:28;;;;;;;23.90;22.60;;;;;;;;;;5071572;28;21020;-69
2021/07/08 07:29:55;;;;;;;22.90;21.70;;;;;;;;;;5049460;28;20463;-69
2021/07/08 07:32:22;;;;;;;23.30;22.10;;;;;;;;;;5060456;28;20462;-68
2021/07/08 07:34:49;;;;;;;23.80;22.50;;;;;;;;;;5053408;28;20468;-68
2021/07/08 07:37:16;;;;;;;23.90;22.70;;;;;;;;;;5061088;28;20481;-69
2021/07/08 07:39:43;;;;;;;24.00;22.70;;;;;;;;;;5072490;28;20799;-68
2021/07/08 07:42:12;;;;;;;23.53;22.33;;;;;;;;;;5072145;28;20450;-68
2021/07/08 07:44:43;;;;;;;23.97;22.67;;;;;;;;;;5073039;28;20473;-68
2021/07/08 07:47:10;;;;;;;22.97;21.67;;;;;;;;;;5069533;28;20440;-69
2021/07/08 07:49:38;;;;;;;23.80;22.50;;;;;;;;;;5052739;28;20448;-68
2021/07/08 07:52:06;;;;;;;23.23;21.97;;;;;;;;;;5061340;28;20485;-68
2021/07/08 07:54:34;;;;;;;23.30;22.10;;;;;;;;;;5076113;28;21038;-68
2021/07/08 07:57:03;;;;;;;23.13;22.00;;;;;;;;;;5076153;28;20490;-68
2021/07/08 07:59:32;;;;;;;24.27;22.80;;;;;;;;;;5076266;28;20457;-69
2021/07/08 08:02:01;;;;;;;24.57;23.37;;;;;;;;;;5071570;28;20461;-68
2021/07/08 08:04:30;;;;;;;25.03;23.63;;;;;;;;;;5075917;28;20565;-68
2021/07/08 08:09:42;;;;;;;24.60;23.30;;;;;;;;;;5076288;28;20480;-68
2021/07/08 08:12:09;;;;;;;24.13;22.83;;;;;;;;;;5060368;28;20452;-71
2021/07/08 08:14:38;;;;;;;25.10;23.73;;;;;;;;;;5056173;28;20474;-68
2021/07/08 08:17:05;;;;;;;24.77;23.37;;;;;;;;;;5060850;28;20475;-69
2021/07/08 08:19:32;;;;;;;24.50;23.10;;;;;;;;;;5059140;28;20455;-68
2021/07/08 08:21:59;;;;;;;24.60;23.30;;;;;;;;;;5076001;28;20447;-68
2021/07/08 08:24:27;;;;;;;25.30;23.90;;;;;;;;;;5074600;28;20467;-68
2021/07/08 08:26:54;;;;;;;25.10;23.50;;;;;;;;;;5075873;28;20450;-69
2021/07/08 08:29:21;;;;;;;24.50;23.20;;;;;;;;;;5074478;28;20473;-69
2021/07/08 08:31:49;;;;;;;24.30;23.00;;;;;;;;;;5055190;28;20448;-68
2021/07/08 08:34:17;;;;;;;23.13;21.83;;;;;;;;;;5054602;28;20467;-68
2021/07/08 08:36:45;;;;;;;23.10;21.80;;;;;;;;;;5054792;28;20484;-68
2021/07/08 08:39:12;;;;;;;23.80;22.50;;;;;;;;;;5054477;28;20939;-68
2021/07/08 08:41:39;;;;;;;23.67;22.40;;;;;;;;;;5066074;28;21073;-70
2021/07/08 08:44:07;;;;;;;24.10;22.70;;;;;;;;;;5055503;28;20468;-68
2021/07/08 08:46:34;;;;;;;23.90;22.60;;;;;;;;;;5071671;28;20447;-68
2021/07/08 08:49:03;;;;;;;23.90;22.43;;;;;;;;;;5075697;28;20450;-69
2021/07/08 08:51:30;;;;;;;23.10;21.83;;;;;;;;;;5074509;28;20530;-68
2021/07/08 08:53:58;;;;;;;23.60;22.30;;;;;;;;;;5073885;28;20481;-70
2021/07/08 08:56:26;;;;;;;24.17;22.87;;;;;;;;;;5074266;28;20997;-69
2021/07/08 08:58:53;;;;;;;23.73;22.43;;;;;;;;;;5064857;28;20459;-68
2021/07/08 09:01:20;;;;;;;22.80;21.60;;;;;;;;;;5073519;28;20450;-68
2021/07/08 09:03:48;;;;;;;23.77;22.37;;;;;;;;;;5073008;28;20463;-69
2021/07/08 09:06:17;;;;;;;26.60;25.10;;;;;;;;;;5073676;28;20455;-68
2021/07/08 09:08:45;;;;;;;25.93;24.53;;;;;;;;;;5072990;28;20451;-70
2021/07/08 09:11:14;;;;;;;26.97;25.47;;;;;;;;;;5073740;28;20870;-69
2021/07/08 09:13:52;;;;;;;26.80;25.40;;;;;;;;;;5060495;28;20468;-68
2021/07/08 09:16:20;;;;;;;27.70;26.20;;;;;;;;;;5053921;28;20486;-68
2021/07/08 09:18:56;;;;;;;26.87;25.47;;;;;;;;;;5063315;28;20829;-68
2021/07/08 09:21:26;;;;;;;26.80;25.40;;;;;;;;;;5074093;28;20430;-68
2021/07/08 09:24:06;;;;;;;26.40;25.00;;;;;;;;;;5072308;28;20482;-69
2021/07/08 09:26:33;;;;;;;27.07;25.67;;;;;;;;;;5069721;28;20443;-68
2021/07/08 09:29:05;;;;;;;25.53;24.13;;;;;;;;;;5053091;28;20447;-69
2021/07/08 09:31:32;;;;;;;25.60;24.10;;;;;;;;;;5056286;28;20455;-68
2021/07/08 09:34:13;;;;;;;24.97;23.77;;;;;;;;;;5072705;28;20467;-68
2021/07/08 09:36:41;;;;;;;26.80;25.40;;;;;;;;;;5072453;28;20470;-68
2021/07/08 09:39:10;;;;;;;26.60;25.23;;;;;;;;;;5074032;28;20450;-68
2021/07/08 09:41:46;;;;;;;25.77;24.47;;;;;;;;;;5063658;28;20546;-68
2021/07/08 09:44:20;;;;;;;26.30;24.90;;;;;;;;;;5053701;28;20474;-69
2021/07/08 09:46:47;;;;;;;26.40;24.80;;;;;;;;;;5072329;28;20454;-70
2021/07/08 09:49:14;;;;;;;26.67;25.37;;;;;;;;;;5073113;28;20812;-68
2021/07/08 09:51:45;;;;;;;25.80;24.40;;;;;;;;;;5063037;28;20447;-70
2021/07/08 09:54:14;;;;;;;26.03;24.53;;;;;;;;;;5070945;22;20581;-65
2021/07/08 09:56:50;;;;;;;26.17;24.87;;;;;;;;;;5072671;28;20508;-65
2021/07/08 09:59:20;;;;;;;26.17;24.77;;;;;;;;;;5071654;28;21001;-64
2021/07/08 10:01:56;;;;;;;26.23;24.87;;;;;;;;;;5071397;28;20967;-69
2021/07/08 10:04:24;;;;;;;26.50;25.07;;;;;;;;;;5071678;28;20466;-65
2021/07/08 10:06:53;;;;;;;26.87;25.27;;;;;;;;;;5071989;28;20449;-65
2021/07/08 10:09:21;;;;;;;26.27;24.77;;;;;;;;;;5070800;28;20462;-64
2021/07/08 10:11:50;;;;;;;25.80;24.30;;;;;;;;;;5071861;28;20461;-64
2021/07/08 10:14:18;;;;;;;25.80;24.40;;;;;;;;;;5069002;28;20467;-64
2021/07/08 10:16:49;;;;;;;25.57;24.17;;;;;;;;;;5082897;28;21019;-64
2021/07/08 10:19:18;;;;;;;25.70;24.00;;;;;;;;;;5069568;28;20455;-66
2021/07/08 10:21:45;;;;;;;26.10;24.60;;;;;;;;;;5071066;28;20823;-65
2021/07/08 10:24:14;;;;;;;27.07;25.57;;;;;;;;;;5071117;28;20831;-65
2021/07/08 10:26:41;;;;;;;26.30;24.70;;;;;;;;;;5065260;28;20450;-64
2021/07/08 10:29:09;;;;;;;28.40;26.23;;;;;;;;;;5051809;28;20976;-64
2021/07/08 10:31:37;;;;;;;29.57;27.27;;;;;;;;;;5056376;28;20493;-65
2021/07/08 10:34:11;;;;;;;29.10;26.77;;;;;;;;;;5071620;28;20467;-64
2021/07/08 10:36:39;;;;;;;29.33;26.57;;;;;;;;;;5070922;28;20537;-66
2021/07/08 10:39:07;;;;;;;34.90;30.60;;;;;;;;;;5071853;28;20453;-64
2021/07/08 10:41:42;;;;;;;26.50;24.90;;;;;;;;;;5070661;28;20950;-64
2021/07/08 10:44:28;;;;;;;27.30;25.50;;;;;;;;;;5071464;28;20519;-64
2021/07/08 10:46:55;;;;;;;26.77;25.27;;;;;;;;;;5070495;28;20453;-64
2021/07/08 10:49:22;;;;;;;25.67;24.27;;;;;;;;;;5071656;28;20451;-64
2021/07/08 10:51:49;;;;;;;30.20;28.10;;;;;;;;;;5070889;28;20458;-65
2021/07/08 10:54:26;;;;;;;47.77;44.70;;;;;;;;;;5071172;28;20483;-64
2021/07/08 10:56:55;;;;;;;88.80;83.60;;;;;;;;;;5070925;28;20479;-63
2021/07/08 10:59:22;;;;;;;72.70;68.40;;;;;;;;;;5071342;28;20453;-65
2021/07/08 11:01:51;;;;;;;60.83;57.00;;;;;;;;;;5070419;28;20818;-64
2021/07/08 11:04:39;;;;;;;43.43;40.47;;;;;;;;;;5071161;28;20477;-65
2021/07/08 11:07:19;;;;;;;39.73;37.33;;;;;;;;;;5071529;28;20450;-64
2021/07/08 11:09:56;;;;;;;40.47;37.87;;;;;;;;;;5070955;28;20447;-64
2021/07/08 11:12:32;;;;;;;36.90;34.23;;;;;;;;;;5071351;28;20459;-64
2021/07/08 11:14:59;;;;;;;39.00;36.53;;;;;;;;;;5070494;28;20470;-64
2021/07/08 11:17:27;;;;;;;36.70;34.57;;;;;;;;;;5071280;28;20482;-64
2021/07/08 11:19:55;;;;;;;33.03;30.93;;;;;;;;;;5071087;28;20447;-64
2021/07/08 11:22:36;;;;;;;36.37;33.50;;;;;;;;;;5070737;28;20793;-63
2021/07/08 11:25:05;;;;;;;27.47;25.97;;;;;;;;;;5078402;28;20488;-64
2021/07/08 11:27:36;;;;;;;30.47;28.57;;;;;;;;;;5065395;28;20501;-64
2021/07/08 11:30:24;;;;;;;29.00;27.30;;;;;;;;;;5055439;28;20497;-63
2021/07/08 11:32:53;;;;;;;29.17;27.37;;;;;;;;;;5059416;28;20462;-63
2021/07/08 11:35:23;;;;;;;28.10;26.30;;;;;;;;;;5074402;28;20486;-64
2021/07/08 11:37:53;;;;;;;28.93;27.20;;;;;;;;;;5072015;28;21001;-64
2021/07/08 11:40:22;;;;;;;27.80;26.20;;;;;;;;;;5071879;28;20449;-63
2021/07/08 11:42:51;;;;;;;28.10;26.40;;;;;;;;;;5074681;28;20469;-64
2021/07/08 11:45:19;;;;;;;25.60;24.10;;;;;;;;;;5073792;28;21072;-63
2021/07/08 11:47:47;;;;;;;28.70;26.80;;;;;;;;;;5074287;28;20832;-63
2021/07/08 11:50:16;;;;;;;25.23;23.63;;;;;;;;;;5073806;28;20451;-63
2021/07/08 11:52:43;;;;;;;24.13;22.67;;;;;;;;;;5074311;28;20945;-64
2021/07/08 11:55:10;;;;;;;23.70;22.40;;;;;;;;;;5074066;28;20492;-64
2021/07/08 11:57:51;;;;;;;23.80;22.40;;;;;;;;;;5074324;28;20485;-63
2021/07/08 12:00:29;;;;;;;23.60;21.97;;;;;;;;;;5063759;28;20462;-64
2021/07/08 12:02:56;;;;;;;23.93;22.60;;;;;;;;;;5067994;28;20451;-63
2021/07/08 12:05:24;;;;;;;25.80;24.30;;;;;;;;;;5057280;28;20479;-63
2021/07/08 12:07:55;;;;;;;23.60;22.00;;;;;;;;;;5053972;28;20954;-63
2021/07/08 12:10:25;;;;;;;24.20;22.87;;;;;;;;;;5053633;28;20530;-64
2021/07/08 12:12:56;;;;;;;24.20;22.80;;;;;;;;;;5054668;28;20436;-64
2021/07/08 12:15:23;;;;;;;24.20;22.90;;;;;;;;;;5054525;28;20525;-64
2021/07/08 12:17:55;;;;;;;24.70;23.20;;;;;;;;;;5057296;28;20470;-64
2021/07/08 12:20:22;;;;;;;24.70;23.30;;;;;;;;;;5073634;28;21099;-64
2021/07/08 12:22:53;;;;;;;25.00;23.50;;;;;;;;;;5064513;28;20458;-64
2021/07/08 12:25:21;;;;;;;23.20;21.70;;;;;;;;;;5054119;28;20460;-64
2021/07/08 12:27:48;;;;;;;24.30;22.90;;;;;;;;;;5054448;28;20452;-64
2021/07/08 12:30:24;;;;;;;24.73;23.37;;;;;;;;;;5053818;28;20447;-64
2021/07/08 12:33:04;;;;;;;23.80;22.60;;;;;;;;;;5054209;28;20526;-63
2021/07/08 12:35:37;;;;;;;23.77;22.37;;;;;;;;;;5067956;28;20475;-64
2021/07/08 12:38:05;;;;;;;24.10;22.70;;;;;;;;;;5073463;28;20479;-63
2021/07/08 12:40:32;;;;;;;23.30;22.00;;;;;;;;;;5083861;28;20843;-63
2021/07/08 12:43:05;;;;;;;23.20;21.90;;;;;;;;;;5066392;28;20450;-64
2021/07/08 12:45:35;;;;;;;22.20;20.80;;;;;;;;;;5053655;28;20483;-64
2021/07/08 12:48:02;;;;;;;22.70;21.40;;;;;;;;;;5063446;28;20455;-64
2021/07/08 12:50:34;;;;;;;22.40;21.10;;;;;;;;;;5073639;28;20465;-64
2021/07/08 12:53:01;;;;;;;22.40;21.20;;;;;;;;;;5062593;28;20462;-64
2021/07/08 12:55:35;;;;;;;22.33;21.23;;;;;;;;;;5061903;28;20490;-64
2021/07/08 12:58:02;;;;;;;22.60;21.33;;;;;;;;;;5071372;28;20482;-64
2021/07/08 13:00:31;;;;;;;23.03;21.77;;;;;;;;;;5073089;28;20522;-64
2021/07/08 13:03:00;;;;;;;22.30;21.10;;;;;;;;;;5073202;28;20450;-64
2021/07/08 13:05:35;;;;;;;26.33;24.63;;;;;;;;;;5073082;28;20562;-63
2021/07/08 13:08:02;;;;;;;25.70;24.17;;;;;;;;;;5073259;28;20475;-63
2021/07/08 13:10:34;;;;;;;24.87;23.37;;;;;;;;;;5072833;28;20822;-63
2021/07/08 13:13:02;;;;;;;25.70;24.30;;;;;;;;;;5072813;28;20451;-64
2021/07/08 13:15:30;;;;;;;25.27;23.87;;;;;;;;;;5072885;28;20466;-64
2021/07/08 13:18:07;;;;;;;25.03;23.80;;;;;;;;;;5073135;28;20510;-64
2021/07/08 13:20:35;;;;;;;25.63;24.23;;;;;;;;;;5072781;28;20802;-64
2021/07/08 13:23:12;;;;;;;25.07;23.67;;;;;;;;;;5072904;28;20469;-64
2021/07/08 13:25:40;;;;;;;24.07;22.70;;;;;;;;;;5072544;28;20451;-64
2021/07/08 13:28:18;;;;;;;23.70;22.50;;;;;;;;;;5073074;28;20453;-64
2021/07/08 13:30:45;;;;;;;23.03;21.87;;;;;;;;;;5072350;28;20525;-64
2021/07/08 13:33:15;;;;;;;23.90;22.63;;;;;;;;;;5072756;28;20451;-64
2021/07/08 13:35:49;;;;;;;24.90;23.60;;;;;;;;;;5071941;28;20450;-64
2021/07/08 13:38:18;;;;;;;24.27;22.97;;;;;;;;;;5073345;28;20466;-64
2021/07/08 13:40:58;;;;;;;23.20;22.00;;;;;;;;;;5071019;28;20474;-64
2021/07/08 13:43:32;;;;;;;23.17;21.87;;;;;;;;;;5072701;28;20486;-63
2021/07/08 13:46:08;;;;;;;23.43;22.23;;;;;;;;;;5071293;28;20812;-63
2021/07/08 13:48:37;;;;;;;23.20;22.00;;;;;;;;;;5062875;28;20447;-65
2021/07/08 13:51:05;;;;;;;24.10;22.60;;;;;;;;;;5053294;28;20458;-64
2021/07/08 13:53:33;;;;;;;23.67;22.20;;;;;;;;;;5052105;28;20868;-65
2021/07/08 13:56:00;;;;;;;24.20;22.80;;;;;;;;;;5058809;28;20832;-63
2021/07/08 13:58:27;;;;;;;23.73;22.50;;;;;;;;;;5056158;28;20514;-64
2021/07/08 14:00:55;;;;;;;23.30;22.00;;;;;;;;;;5062798;28;20554;-65
2021/07/08 14:03:22;;;;;;;23.90;22.50;;;;;;;;;;5071990;28;20447;-63
2021/07/08 14:05:50;;;;;;;23.80;22.60;;;;;;;;;;5072126;28;20462;-65
2021/07/08 14:08:19;;;;;;;24.33;22.93;;;;;;;;;;5071921;28;20443;-64
2021/07/08 14:10:46;;;;;;;23.40;22.10;;;;;;;;;;5071734;28;20451;-64
2021/07/08 14:13:13;;;;;;;23.37;22.17;;;;;;;;;;5071581;28;20455;-66
2021/07/08 14:15:40;;;;;;;23.23;21.93;;;;;;;;;;5072215;28;20449;-64
2021/07/08 14:18:07;;;;;;;22.97;21.87;;;;;;;;;;5071683;28;20475;-66
2021/07/08 14:20:34;;;;;;;23.60;22.30;;;;;;;;;;5076784;28;20469;-64
2021/07/08 14:23:03;;;;;;;23.00;21.80;;;;;;;;;;5071776;28;20455;-65
2021/07/08 14:25:30;;;;;;;22.50;21.40;;;;;;;;;;5071314;28;20485;-64
2021/07/08 14:27:57;;;;;;;23.60;22.40;;;;;;;;;;5055758;28;20448;-64